createdAt,value
2018-09-24T00:01:11.475Z,100403.14
2018-09-24T00:03:39.206Z,100402.69
2018-09-24T00:06:08.104Z,100412.22
2018-09-24T00:08:35.850Z,100419.96
2018-09-24T00:11:04.756Z,100414.00
2018-09-24T00:13:33.070Z,100401.34
2018-09-24T00:16:00.825Z,100411.61
2018-09-24T00:18:29.716Z,100410.45
2018-09-24T00:20:58.035Z,100406.56
2018-09-24T00:23:25.772Z,100403.92
2018-09-24T00:25:54.674Z,100401.52
2018-09-24T00:28:22.988Z,100394.41
2018-09-24T00:30:50.740Z,100397.69
2018-09-24T00:33:19.064Z,100391.52
2018-09-24T00:35:47.382Z,100397.80
2018-09-24T00:38:16.301Z,100397.66
2018-09-24T00:40:44.630Z,100398.03
2018-09-24T00:43:12.423Z,100400.41
2018-09-24T00:45:41.276Z,100401.80
2018-09-24T00:48:09.017Z,100406.75
2018-09-24T00:50:37.917Z,100411.52
2018-09-24T00:53:06.244Z,100408.75
2018-09-24T00:55:34.552Z,100405.34
2018-09-24T00:58:02.869Z,100405.58
2018-09-24T01:00:31.194Z,100406.64
2018-09-24T01:02:59.565Z,100412.06
2018-09-24T01:05:27.829Z,100414.66
2018-09-24T01:07:56.142Z,100417.95
2018-09-24T01:10:23.882Z,100427.94
2018-09-24T01:12:52.790Z,100439.00
2018-09-24T01:15:21.113Z,100449.44
2018-09-24T01:17:49.430Z,100461.70
2018-09-24T01:20:17.181Z,100448.80
2018-09-24T01:22:45.491Z,100454.63
2018-09-24T01:25:14.391Z,100457.20
2018-09-24T01:27:42.699Z,100462.06
2018-09-24T01:30:11.041Z,100456.97
2018-09-24T01:32:39.353Z,100454.88
2018-09-24T01:35:07.084Z,100453.73
2018-09-24T01:37:35.998Z,100451.73
2018-09-24T01:40:04.307Z,100456.63
2018-09-24T01:42:32.626Z,100451.01
2018-09-24T01:45:00.940Z,100462.66
2018-09-24T01:47:28.681Z,100474.41
2018-09-24T01:49:56.996Z,100471.80
2018-09-24T01:52:25.897Z,100465.55
2018-09-24T01:54:54.217Z,100477.75
2018-09-24T01:57:22.549Z,100485.05
2018-09-24T01:59:50.857Z,100486.64
2018-09-24T02:02:18.590Z,100484.84
2018-09-24T02:04:47.481Z,100492.33
2018-09-24T02:07:15.800Z,100492.52
2018-09-24T02:09:44.121Z,100495.09
2018-09-24T02:12:12.434Z,100498.68
2018-09-24T02:14:40.755Z,100498.46
2018-09-24T02:17:08.488Z,100500.02
2018-09-24T02:19:37.723Z,100501.25
2018-09-24T02:22:05.470Z,100512.72
2018-09-24T02:24:33.786Z,100510.05
2018-09-24T02:27:02.680Z,100513.61
2018-09-24T02:29:31.032Z,100519.33
2018-09-24T02:31:58.778Z,100518.72
2018-09-24T02:34:27.086Z,100517.77
2018-09-24T02:36:55.989Z,100521.89
2018-09-24T02:39:24.297Z,100517.80
2018-09-24T02:41:52.652Z,100519.89
2018-09-24T02:44:20.970Z,100529.86
2018-09-24T02:46:48.707Z,100528.63
2018-09-24T02:49:17.616Z,100534.48
2018-09-24T02:51:45.928Z,100532.42
2018-09-24T02:54:14.246Z,100528.58
2018-09-24T02:56:42.564Z,100527.05
2018-09-24T02:59:10.880Z,100533.50
2018-09-24T03:01:39.201Z,100534.59
2018-09-24T03:04:07.368Z,100539.48
2018-09-24T03:06:35.253Z,100547.55
2018-09-24T03:09:04.149Z,100548.11
2018-09-24T03:11:31.870Z,100548.39
2018-09-24T03:14:00.761Z,100543.95
2018-09-24T03:16:28.491Z,100548.99
2018-09-24T03:18:57.376Z,100552.78
2018-09-24T03:21:25.102Z,100561.00
2018-09-24T03:23:53.993Z,100567.86
2018-09-24T03:26:21.733Z,100575.63
2018-09-24T03:28:50.626Z,100564.67
2018-09-24T03:31:18.354Z,100567.36
2018-09-24T03:33:46.841Z,100570.56
2018-09-24T03:36:15.572Z,100577.22
2018-09-24T03:38:43.887Z,100577.48
2018-09-24T03:41:11.629Z,100574.12
2018-09-24T03:43:40.536Z,100571.95
2018-09-24T03:46:08.868Z,100571.94
2018-09-24T03:48:37.184Z,100565.40
2018-09-24T03:51:05.487Z,100563.11
2018-09-24T03:53:33.224Z,100563.47
2018-09-24T03:56:01.555Z,100564.84
2018-09-24T03:58:29.874Z,100568.80
2018-09-24T04:00:58.202Z,100573.46
2018-09-24T04:03:27.095Z,100578.12
2018-09-24T04:06:00.548Z,100570.34
2018-09-24T04:08:34.417Z,100579.56
2018-09-24T04:11:08.413Z,100575.53
2018-09-24T04:13:42.818Z,100582.24
2018-09-24T04:16:16.139Z,100576.73
2018-09-24T04:18:50.243Z,100571.19
2018-09-24T04:21:24.736Z,100571.22
2018-09-24T04:23:58.048Z,100569.50
2018-09-24T04:26:32.943Z,100571.72
2018-09-24T04:29:06.701Z,100575.50
2018-09-24T04:31:41.059Z,100572.69
2018-09-24T04:34:15.071Z,100571.88
2018-09-24T04:36:49.032Z,100571.53
2018-09-24T04:39:23.171Z,100575.46
2018-09-24T04:41:56.983Z,100578.68
2018-09-24T04:44:30.364Z,100575.55
2018-09-24T04:47:04.366Z,100586.02
2018-09-24T04:49:38.896Z,100594.42
2018-09-24T04:52:12.845Z,100591.70
2018-09-24T04:54:46.121Z,100600.20
2018-09-24T04:57:21.106Z,100599.50
2018-09-24T04:59:54.353Z,100605.73
2018-09-24T05:02:28.974Z,100610.56
2018-09-24T05:05:02.828Z,100612.38
2018-09-24T05:07:36.736Z,100614.27
2018-09-24T05:10:10.576Z,100620.40
2018-09-24T05:12:44.525Z,100619.09
2018-09-24T05:15:18.449Z,100627.73
2018-09-24T05:17:52.556Z,100626.27
2018-09-24T05:20:25.859Z,100636.59
2018-09-24T05:23:00.758Z,100634.39
2018-09-24T05:25:34.032Z,100630.93
2018-09-24T05:28:08.811Z,100632.81
2018-09-24T05:30:42.602Z,100636.25
2018-09-24T05:33:16.459Z,100639.59
2018-09-24T05:35:50.399Z,100636.69
2018-09-24T05:38:23.794Z,100644.60
2018-09-24T05:40:57.767Z,100642.52
2018-09-24T05:43:32.134Z,100651.79
2018-09-24T05:46:06.133Z,100654.36
2018-09-24T05:48:39.457Z,100663.90
2018-09-24T05:51:14.035Z,100663.48
2018-09-24T05:53:47.358Z,100668.01
2018-09-24T05:56:21.370Z,100668.80
2018-09-24T05:58:56.062Z,100671.39
2018-09-24T06:01:29.364Z,100673.19
2018-09-24T06:04:03.826Z,100672.66
2018-09-24T06:06:37.102Z,100679.14
2018-09-24T06:09:11.671Z,100670.56
2018-09-24T06:11:45.471Z,100676.35
2018-09-24T06:14:18.770Z,100684.43
2018-09-24T06:16:53.232Z,100692.00
2018-09-24T06:19:27.138Z,100695.31
2018-09-24T06:22:00.968Z,100702.22
2018-09-24T06:24:34.282Z,100708.22
2018-09-24T06:27:08.682Z,100717.95
2018-09-24T06:29:42.222Z,100719.59
2018-09-24T06:32:16.090Z,100728.64
2018-09-24T06:34:52.146Z,100732.69
2018-09-24T06:37:24.692Z,100735.37
2018-09-24T06:39:57.978Z,100735.79
2018-09-24T06:42:31.843Z,100742.44
2018-09-24T06:45:06.692Z,100736.11
2018-09-24T06:47:40.084Z,100749.52
2018-09-24T06:50:14.093Z,100752.22
2018-09-24T06:52:48.708Z,100749.81
2018-09-24T06:55:22.952Z,100762.86
2018-09-24T06:57:56.235Z,100762.84
2018-09-24T07:00:30.462Z,100775.77
2018-09-24T07:03:04.934Z,100777.13
2018-09-24T07:05:39.023Z,100780.08
2018-09-24T07:08:13.612Z,100789.20
2018-09-24T07:10:46.610Z,100789.63
2018-09-24T07:13:20.947Z,100783.34
2018-09-24T07:15:55.160Z,100780.50
2018-09-24T07:18:29.224Z,100788.31
2018-09-24T07:21:03.167Z,100790.48
2018-09-24T07:23:36.402Z,100791.59
2018-09-24T07:26:11.080Z,100793.88
2018-09-24T07:28:44.729Z,100792.72
2018-09-24T07:31:18.131Z,100794.59
2018-09-24T07:33:52.567Z,100797.89
2018-09-24T07:36:26.587Z,100804.73
2018-09-24T07:39:00.370Z,100802.00
2018-09-24T07:41:34.305Z,100808.49
2018-09-24T07:44:07.684Z,100810.54
2018-09-24T07:46:41.675Z,100817.47
2018-09-24T07:49:15.507Z,100817.70
2018-09-24T07:51:50.074Z,100824.28
2018-09-24T07:54:24.073Z,100830.72
2018-09-24T07:56:57.591Z,100839.23
2018-09-24T07:59:31.998Z,100837.97
2018-09-24T08:02:05.347Z,100849.71
2018-09-24T08:04:39.868Z,100846.77
2018-09-24T08:07:14.815Z,100847.81
2018-09-24T08:09:48.021Z,100865.38
2018-09-24T08:12:21.945Z,100856.64
2018-09-24T08:14:56.534Z,100865.66
2018-09-24T08:17:30.381Z,100863.55
2018-09-24T08:20:03.642Z,100874.47
2018-09-24T08:22:38.252Z,100876.86
2018-09-24T08:25:12.140Z,100896.27
2018-09-24T08:27:46.102Z,100901.70
2018-09-24T08:30:19.447Z,100901.19
2018-09-24T08:32:53.838Z,100892.27
2018-09-24T08:35:28.177Z,100900.30
2018-09-24T08:38:02.483Z,100898.98
2018-09-24T08:40:36.271Z,100909.12
2018-09-24T08:43:10.155Z,100905.27
2018-09-24T08:45:44.302Z,100913.71
2018-09-24T08:48:17.928Z,100911.39
2018-09-24T08:50:51.742Z,100925.03
2018-09-24T08:53:26.362Z,100921.26
2018-09-24T08:56:00.162Z,100932.52
2018-09-24T08:58:34.294Z,100945.29
2018-09-24T09:01:08.096Z,100941.26
2018-09-24T09:03:42.255Z,100952.13
2018-09-24T09:06:16.121Z,100958.82
2018-09-24T09:08:50.182Z,100961.25
2018-09-24T09:11:23.985Z,100980.84
2018-09-24T09:13:57.909Z,100977.59
2018-09-24T09:16:31.900Z,100974.41
2018-09-24T09:19:06.126Z,100997.39
2018-09-24T09:21:39.990Z,101001.23
2018-09-24T09:24:13.899Z,100995.22
2018-09-24T09:26:47.317Z,101002.95
2018-09-24T09:29:21.741Z,101008.02
2018-09-24T09:31:55.711Z,101007.11
2018-09-24T09:34:29.924Z,101018.81
2018-09-24T09:37:03.816Z,101024.33
2018-09-24T09:39:38.000Z,101015.38
2018-09-24T09:42:11.799Z,101026.47
2018-09-24T09:44:45.196Z,101054.59
2018-09-24T09:47:19.705Z,101032.16
2018-09-24T09:49:52.985Z,101044.07
2018-09-24T09:52:27.456Z,101038.21
2018-09-24T09:55:01.828Z,101041.98
2018-09-24T09:57:35.637Z,101047.14
2018-09-24T10:00:09.007Z,101060.94
2018-09-24T10:02:42.801Z,101061.16
2018-09-24T10:05:17.567Z,101069.77
2018-09-24T10:07:51.496Z,101071.16
2018-09-24T10:10:25.971Z,101085.28
2018-09-24T10:13:00.389Z,101080.94
2018-09-24T10:15:33.740Z,101080.05
2018-09-24T10:18:07.579Z,101099.50
2018-09-24T10:20:42.031Z,101112.69
2018-09-24T10:23:16.037Z,101106.87
2018-09-24T10:25:50.039Z,101109.31
2018-09-24T10:28:23.316Z,101117.27
2018-09-24T10:30:57.972Z,101134.20
2018-09-24T10:33:31.954Z,101130.47
2018-09-24T10:36:05.795Z,101135.83
2018-09-24T10:38:39.664Z,101124.16
2018-09-24T10:41:13.562Z,101126.41
2018-09-24T10:43:47.366Z,101145.69
2018-09-24T10:46:21.335Z,101142.84
2018-09-24T10:48:55.587Z,101155.55
2018-09-24T10:51:29.591Z,101169.55
2018-09-24T10:54:03.607Z,101155.74
2018-09-24T10:56:37.485Z,101164.70
2018-09-24T10:59:10.791Z,101178.30
2018-09-24T11:01:44.687Z,101185.97
2018-09-24T11:04:19.249Z,101185.87
2018-09-24T11:06:53.122Z,101190.69
2018-09-24T11:09:27.006Z,101194.25
2018-09-24T11:12:00.952Z,101189.86
2018-09-24T11:14:34.802Z,101197.07
2018-09-24T11:17:09.075Z,101213.64
2018-09-24T11:19:42.867Z,101232.12
2018-09-24T11:22:16.787Z,101244.46
2018-09-24T11:24:50.654Z,101275.98
2018-09-24T11:27:24.517Z,101342.55
2018-09-24T11:29:57.858Z,101350.62
2018-09-24T11:32:31.817Z,101324.93
2018-09-24T11:35:06.465Z,101309.53
2018-09-24T11:37:40.556Z,101313.22
2018-09-24T11:40:13.985Z,101323.51
2018-09-24T11:42:48.877Z,101338.87
2018-09-24T11:45:22.532Z,101339.34
2018-09-24T11:47:56.567Z,101351.83
2018-09-24T11:50:29.878Z,101359.05
2018-09-24T11:53:03.939Z,101365.09
2018-09-24T11:55:38.001Z,101373.52
2018-09-24T11:58:12.449Z,101371.75
2018-09-24T12:00:46.184Z,101377.58
2018-09-24T12:03:19.462Z,101378.30
2018-09-24T12:05:54.116Z,101380.88
2018-09-24T12:08:28.405Z,101380.74
2018-09-24T12:11:02.391Z,101381.87
2018-09-24T12:13:36.264Z,101388.93
2018-09-24T12:16:10.330Z,101394.61
2018-09-24T12:18:43.673Z,101394.11
2018-09-24T12:21:18.196Z,101397.92
2018-09-24T12:23:51.616Z,101403.63
2018-09-24T12:26:25.480Z,101406.97
2018-09-24T12:28:59.532Z,101409.27
2018-09-24T12:31:34.060Z,101418.04
2018-09-24T12:34:08.292Z,101421.12
2018-09-24T12:36:42.180Z,101424.16
2018-09-24T12:39:15.525Z,101426.80
2018-09-24T12:41:49.947Z,101434.20
2018-09-24T12:44:23.305Z,101434.50
2018-09-24T12:46:57.770Z,101441.30
2018-09-24T12:49:31.687Z,101444.48
2018-09-24T12:52:05.996Z,101441.66
2018-09-24T12:54:39.282Z,101445.86
2018-09-24T12:57:13.290Z,101460.97
2018-09-24T12:59:47.231Z,101457.14
2018-09-24T13:02:20.997Z,101462.18
2018-09-24T13:04:55.660Z,101466.59
2018-09-24T13:07:29.524Z,101474.19
2018-09-24T13:10:03.878Z,101466.33
2018-09-24T13:12:38.025Z,101473.66
2018-09-24T13:15:12.299Z,101481.87
2018-09-24T13:17:46.780Z,101494.67
2018-09-24T13:20:20.223Z,101493.48
2018-09-24T13:22:55.948Z,101493.12
2018-09-24T13:25:28.937Z,101495.84
2018-09-24T13:28:02.833Z,101487.98
2018-09-24T13:30:36.876Z,101499.97
2018-09-24T13:33:10.861Z,101506.05
2018-09-24T13:35:45.610Z,101503.23
2018-09-24T13:38:20.370Z,101502.28
2018-09-24T13:40:53.811Z,101504.09
2018-09-24T13:43:28.810Z,101512.98
2018-09-24T13:46:01.621Z,101513.62
2018-09-24T13:48:35.449Z,101516.70
2018-09-24T13:51:09.430Z,101520.43
2018-09-24T13:53:43.283Z,101525.05
2018-09-24T13:56:17.156Z,101520.11
2018-09-24T13:58:51.168Z,101524.62
2018-09-24T14:01:24.994Z,101528.08
2018-09-24T14:03:59.811Z,101534.87
2018-09-24T14:06:33.082Z,101530.02
2018-09-24T14:09:06.943Z,101534.61
2018-09-24T14:11:41.033Z,101537.39
2018-09-24T14:14:14.678Z,101537.98
2018-09-24T14:16:48.646Z,101540.80
2018-09-24T14:19:22.315Z,101537.66
2018-09-24T14:21:56.873Z,101544.17
2018-09-24T14:24:30.706Z,101539.63
2018-09-24T14:27:04.794Z,101544.91
2018-09-24T14:29:38.630Z,101539.50
2018-09-24T14:32:12.589Z,101547.58
2018-09-24T14:34:46.534Z,101555.73
2018-09-24T14:37:20.389Z,101549.89
2018-09-24T14:39:54.269Z,101560.34
2018-09-24T14:42:28.120Z,101558.08
2018-09-24T14:45:02.024Z,101566.03
2018-09-24T14:47:35.892Z,101570.45
2018-09-24T14:50:09.165Z,101572.80
2018-09-24T14:52:43.666Z,101573.04
2018-09-24T14:55:17.816Z,101578.82
2018-09-24T14:57:52.104Z,101581.59
2018-09-24T15:00:26.002Z,101581.23
2018-09-24T15:02:59.475Z,101589.20
2018-09-24T15:05:34.049Z,101587.03
2018-09-24T15:08:08.107Z,101587.88
2018-09-24T15:10:41.415Z,101594.75
2018-09-24T15:13:15.326Z,101600.34
2018-09-24T15:15:49.745Z,101602.80
2018-09-24T15:18:24.772Z,101602.72
2018-09-24T15:20:57.764Z,101601.70
2018-09-24T15:23:32.404Z,101602.34
2018-09-24T15:26:05.790Z,101606.32
2018-09-24T15:28:39.899Z,101607.73
2018-09-24T15:31:13.845Z,101608.64
2018-09-24T15:33:48.745Z,101613.67
2018-09-24T15:36:23.921Z,101610.92
2018-09-24T15:38:56.588Z,101615.14
2018-09-24T15:41:30.727Z,101612.28
2018-09-24T15:44:04.947Z,101617.08
2018-09-24T15:46:38.884Z,101617.09
2018-09-24T15:49:12.771Z,101618.65
2018-09-24T15:51:46.090Z,101619.77
2018-09-24T15:54:19.950Z,101617.70
2018-09-24T15:56:54.405Z,101623.45
2018-09-24T15:59:28.540Z,101619.16
2018-09-24T16:02:02.493Z,101624.86
2018-09-24T16:04:36.399Z,101624.15
2018-09-24T16:07:11.602Z,101635.58
2018-09-24T16:09:45.570Z,101635.94
2018-09-24T16:12:18.939Z,101638.29
2018-09-24T16:14:53.382Z,101645.36
2018-09-24T16:17:26.683Z,101643.37
2018-09-24T16:20:00.566Z,101641.48
2018-09-24T16:22:35.044Z,101645.11
2018-09-24T16:25:08.903Z,101642.30
2018-09-24T16:27:42.173Z,101644.17
2018-09-24T16:30:16.078Z,101648.91
2018-09-24T16:32:50.618Z,101653.63
2018-09-24T16:35:24.443Z,101656.77
2018-09-24T16:37:58.353Z,101668.87
2018-09-24T16:40:32.432Z,101667.97
2018-09-24T16:43:06.445Z,101669.55
2018-09-24T16:45:40.589Z,101668.72
2018-09-24T16:48:13.902Z,101672.63
2018-09-24T16:50:48.345Z,101680.41
2018-09-24T16:53:22.233Z,101684.09
2018-09-24T16:55:56.113Z,101688.05
2018-09-24T16:58:30.104Z,101688.24
2018-09-24T17:01:04.038Z,101695.85
2018-09-24T17:03:37.492Z,101700.75
2018-09-24T17:06:11.405Z,101700.17
2018-09-24T17:08:45.820Z,101706.17
2018-09-24T17:11:19.719Z,101704.29
2018-09-24T17:13:53.595Z,101708.09
2018-09-24T17:16:27.653Z,101707.38
2018-09-24T17:19:01.707Z,101708.69
2018-09-24T17:21:36.258Z,101703.34
2018-09-24T17:24:10.065Z,101714.39
2018-09-24T17:26:44.025Z,101713.95
2018-09-24T17:29:18.012Z,101717.16
2018-09-24T17:31:52.036Z,101718.36
2018-09-24T17:34:26.067Z,101717.97
2018-09-24T17:36:59.415Z,101721.09
2018-09-24T17:39:34.065Z,101722.34
2018-09-24T17:42:07.972Z,101731.36
2018-09-24T17:44:41.916Z,101748.20
2018-09-24T17:47:15.864Z,101762.69
2018-09-24T17:49:49.720Z,101767.65
2018-09-24T17:52:24.982Z,101783.42
2018-09-24T17:54:59.244Z,101816.77
2018-09-24T17:57:33.465Z,101809.45
2018-09-24T18:00:07.196Z,101794.97
2018-09-24T18:02:42.262Z,101785.08
2018-09-24T18:05:16.379Z,101777.86
2018-09-24T18:07:50.846Z,101773.42
2018-09-24T18:10:24.773Z,101778.09
2018-09-24T18:15:43.669Z,101795.80
2018-09-24T18:18:17.408Z,101802.25
2018-09-24T18:20:51.407Z,101797.02
2018-09-24T18:23:25.685Z,101799.52
2018-09-24T18:25:59.952Z,101802.64
2018-09-24T18:28:34.028Z,101803.61
2018-09-24T18:31:08.077Z,101808.55
2018-09-24T18:33:42.345Z,101818.85
2018-09-24T18:36:16.012Z,101846.68
2018-09-24T18:38:49.914Z,101822.42
2018-09-24T18:41:24.290Z,101812.68
2018-09-24T18:43:59.158Z,101818.91
2018-09-24T18:46:33.786Z,101830.72
2018-09-24T18:49:08.575Z,101872.09
2018-09-24T18:51:43.699Z,101862.73
2018-09-24T18:54:16.758Z,101892.94
2018-09-24T18:56:50.723Z,101884.91
2018-09-24T18:59:24.037Z,101842.56
2018-09-24T19:01:58.543Z,101846.69
2018-09-24T19:04:32.413Z,101847.02
2018-09-24T19:07:06.512Z,101853.55
2018-09-24T19:09:40.640Z,101862.22
2018-09-24T19:12:13.990Z,101856.87
2018-09-24T19:14:48.628Z,101859.15
2018-09-24T19:17:22.635Z,101863.11
2018-09-24T19:19:56.508Z,101865.84
2018-09-24T19:22:30.484Z,101869.97
2018-09-24T19:25:04.342Z,101867.78
2018-09-24T19:27:37.898Z,101875.20
2018-09-24T19:30:11.942Z,101877.21
2018-09-24T19:32:46.384Z,101876.28
2018-09-24T19:35:20.390Z,101883.41
2018-09-24T19:37:54.292Z,101886.66
2018-09-24T19:40:27.718Z,101888.50
2018-09-24T19:43:02.324Z,101893.91
2018-09-24T19:45:36.182Z,101887.08
2018-09-24T19:48:10.359Z,101890.98
2018-09-24T19:50:43.787Z,101897.15
2018-09-24T19:53:17.748Z,101897.38
2018-09-24T19:55:51.757Z,101897.05
2018-09-24T19:58:25.715Z,101899.88
2018-09-24T20:01:00.303Z,101903.28
2018-09-24T20:03:34.189Z,101906.95
2018-09-24T20:06:08.116Z,101916.42
2018-09-24T20:08:41.561Z,101913.45
2018-09-24T20:11:15.748Z,101922.05
2018-09-24T20:13:50.285Z,101928.77
2018-09-24T20:16:24.437Z,101931.82
2018-09-24T20:18:58.449Z,101932.52
2018-09-24T20:21:32.557Z,101934.77
2018-09-24T20:24:06.622Z,101938.53
2018-09-24T20:26:40.239Z,101940.47
2018-09-24T20:29:14.216Z,101943.84
2018-09-24T20:31:48.783Z,101945.24
2018-09-24T20:34:22.876Z,101950.36
2018-09-24T20:36:57.342Z,101955.77
2018-09-24T20:39:31.388Z,101954.19
2018-09-24T20:42:05.457Z,101960.14
2018-09-24T20:44:39.478Z,101957.39
2018-09-24T20:47:13.370Z,101961.17
2018-09-24T20:49:47.460Z,101961.36
2018-09-24T20:52:21.502Z,101967.93
2018-09-24T20:54:55.527Z,101979.48
2018-09-24T20:57:29.807Z,101990.52
2018-09-24T21:00:03.600Z,102019.37
2018-09-24T21:02:37.685Z,102060.53
2018-09-24T21:05:11.059Z,102034.56
2018-09-24T21:07:45.092Z,102023.48
2018-09-24T21:10:19.679Z,102026.70
2018-09-24T21:12:53.041Z,102017.81
2018-09-24T21:15:27.027Z,102002.17
2018-09-24T21:18:01.554Z,101999.45
2018-09-24T21:20:35.412Z,102002.22
2018-09-24T21:23:08.865Z,102003.80
2018-09-24T21:25:42.757Z,102002.41
2018-09-24T21:28:17.618Z,102007.03
2018-09-24T21:30:50.860Z,102007.50
2018-09-24T21:33:24.950Z,102011.30
2018-09-24T21:35:59.515Z,102020.89
2018-09-24T21:38:33.670Z,102020.84
2018-09-24T21:41:07.625Z,102029.17
2018-09-24T21:43:41.021Z,102033.94
2018-09-24T21:46:15.161Z,102041.05
2018-09-24T21:48:48.870Z,102041.80
2018-09-24T21:51:23.473Z,102045.25
2018-09-24T21:53:56.825Z,102050.34
2018-09-24T21:56:30.607Z,102050.95
2018-09-24T21:59:05.527Z,102049.29
2018-09-24T22:01:40.227Z,102054.05
2018-09-24T22:04:13.375Z,102056.58
2018-09-24T22:06:47.332Z,102062.31
2018-09-24T22:09:20.507Z,102067.71
2018-09-24T22:11:55.126Z,102072.09
2018-09-24T22:14:29.125Z,102076.96
2018-09-24T22:17:03.136Z,102079.30
2018-09-24T22:19:36.989Z,102081.31
2018-09-24T22:22:10.365Z,102089.07
2018-09-24T22:24:45.005Z,102098.63
2018-09-24T22:27:18.843Z,102096.88
2018-09-24T22:29:52.215Z,102099.41
2018-09-24T22:32:26.566Z,102105.97
2018-09-24T22:34:59.886Z,102109.72
2018-09-24T22:37:34.273Z,102110.09
2018-09-24T22:40:08.165Z,102113.84
2018-09-24T22:42:41.545Z,102116.97
2018-09-24T22:45:16.056Z,102124.46
2018-09-24T22:47:49.206Z,102127.42
2018-09-24T22:50:23.609Z,102125.10
2018-09-24T22:52:57.357Z,102125.16
2018-09-24T22:55:31.445Z,102133.70
2018-09-24T22:58:06.266Z,102132.19
2018-09-24T23:00:39.643Z,102135.45
2018-09-24T23:03:13.630Z,102139.40
2018-09-24T23:05:46.948Z,102142.73
2018-09-24T23:08:21.347Z,102142.37
2018-09-24T23:10:54.819Z,102147.33
2018-09-24T23:13:29.399Z,102149.08
2018-09-24T23:16:03.064Z,102152.07
2018-09-24T23:18:37.333Z,102154.68
2018-09-24T23:21:10.801Z,102161.73
2018-09-24T23:23:44.778Z,102161.80
2018-09-24T23:26:18.807Z,102162.95
2018-09-24T23:28:52.778Z,102164.53
2018-09-24T23:31:27.601Z,102166.86
2018-09-24T23:34:01.625Z,102172.52
2018-09-24T23:36:35.419Z,102176.48
2018-09-24T23:39:08.789Z,102181.14
2018-09-24T23:41:43.224Z,102183.81
2018-09-24T23:44:16.979Z,102184.08
2018-09-24T23:46:50.496Z,102185.72
2018-09-24T23:49:25.082Z,102189.57
2018-09-24T23:51:58.550Z,102192.22
2018-09-24T23:54:32.627Z,102193.95
2018-09-24T23:57:07.214Z,102195.33
2018-09-24T23:59:41.229Z,102201.72
